Time;durP1;ratioP1;P1;durP2;ratioP2;P2;SDS_P1;SDS_P2;PMS_P1;PMS_P2;Temp;Humidity;BMP_temperature;BMP_pressure;BME280_temperature;BME280_humidity;BME280_pressure;Samples;Min_cycle;Max_cycle;Signal;HPM_P1;HPM_P2
2023/03/22 00:01:16;;;;;;;10.18;4.55;;;;;;;9.88;100.00;100805.88;5110358;28;20031;-72
2023/03/22 00:03:41;;;;;;;11.02;4.07;;;;;;;9.87;100.00;100797.97;5112974;28;20031;-72
2023/03/22 00:06:07;;;;;;;8.88;4.15;;;;;;;9.86;100.00;100796.34;5111083;28;20030;-72
2023/03/22 00:08:33;;;;;;;11.05;4.38;;;;;;;9.82;100.00;100803.22;5112901;28;20030;-73
2023/03/22 00:10:58;;;;;;;9.23;3.53;;;;;;;9.83;100.00;100791.34;5113797;28;20020;-72
2023/03/22 00:13:24;;;;;;;9.65;3.38;;;;;;;9.74;100.00;100791.66;5112070;28;20016;-72
2023/03/22 00:15:49;;;;;;;8.93;3.47;;;;;;;9.71;100.00;100789.38;5113949;28;20160;-73
2023/03/22 00:18:16;;;;;;;8.43;3.50;;;;;;;9.68;100.00;100787.13;5112191;28;20370;-72
2023/03/22 00:20:48;;;;;;;11.30;3.80;;;;;;;9.69;100.00;100787.94;5113184;28;20031;-72
2023/03/22 00:23:14;;;;;;;9.07;2.92;;;;;;;9.72;100.00;100780.25;5111881;28;20157;-72
2023/03/22 00:25:39;;;;;;;10.52;3.17;;;;;;;9.64;100.00;100777.81;5113804;28;20132;-73
2023/03/22 00:28:04;;;;;;;7.72;3.40;;;;;;;9.66;100.00;100773.03;5113421;28;20027;-73
2023/03/22 00:30:30;;;;;;;10.23;3.70;;;;;;;9.62;100.00;100769.09;5113581;28;20548;-73
2023/03/22 00:32:55;;;;;;;9.30;3.60;;;;;;;9.63;100.00;100767.22;5112544;28;20405;-72
2023/03/22 00:35:20;;;;;;;10.45;3.90;;;;;;;9.60;100.00;100760.38;5108787;28;20023;-72
2023/03/22 00:37:46;;;;;;;12.55;4.10;;;;;;;9.57;100.00;100753.56;5113297;28;20016;-73
2023/03/22 00:40:12;;;;;;;8.50;3.80;;;;;;;9.56;100.00;100754.59;5113235;28;20031;-72
2023/03/22 00:42:40;;;;;;;9.63;3.50;;;;;;;9.58;100.00;100757.06;5112115;28;20065;-73
2023/03/22 00:45:07;;;;;;;12.38;4.32;;;;;;;9.49;100.00;100747.59;5113268;28;20030;-74
2023/03/22 00:47:33;;;;;;;11.30;3.90;;;;;;;9.51;100.00;100749.03;5111612;28;20029;-73
2023/03/22 00:49:59;;;;;;;13.32;4.90;;;;;;;9.45;100.00;100749.91;5111975;28;20024;-74
2023/03/22 00:52:24;;;;;;;10.00;4.20;;;;;;;9.45;100.00;100740.97;5110852;28;20019;-73
2023/03/22 00:54:50;;;;;;;10.77;4.15;;;;;;;9.44;100.00;100732.06;5112847;28;20051;-71
2023/03/22 00:57:16;;;;;;;9.50;4.15;;;;;;;9.48;100.00;100732.41;5111749;28;20027;-72
2023/03/22 00:59:42;;;;;;;8.98;4.20;;;;;;;9.47;100.00;100723.50;5111870;28;20019;-73
2023/03/22 01:02:08;;;;;;;14.57;4.32;;;;;;;9.45;100.00;100727.47;5109367;28;20027;-72
2023/03/22 01:04:34;;;;;;;12.88;4.72;;;;;;;9.48;100.00;100721.63;5113578;28;20035;-72
2023/03/22 01:07:02;;;;;;;11.88;4.53;;;;;;;9.44;100.00;100721.25;5111672;28;20042;-73
2023/03/22 01:09:29;;;;;;;12.88;5.05;;;;;;;9.47;100.00;100717.28;5102899;28;20367;-72
2023/03/22 01:11:56;;;;;;;12.43;5.80;;;;;;;9.47;100.00;100720.00;5091458;28;20024;-72
2023/03/22 01:14:22;;;;;;;14.90;5.80;;;;;;;9.49;100.00;100712.47;5092480;28;20060;-72
2023/03/22 01:16:48;;;;;;;14.80;6.20;;;;;;;9.49;100.00;100704.38;5092462;28;20027;-72
2023/03/22 01:19:14;;;;;;;13.93;6.63;;;;;;;9.53;100.00;100700.19;5092017;28;20027;-73
2023/03/22 01:21:39;;;;;;;11.80;6.35;;;;;;;9.53;100.00;100698.31;5092446;28;20170;-72
2023/03/22 01:24:04;;;;;;;11.57;6.72;;;;;;;9.54;100.00;100691.03;5111637;28;20465;-73
2023/03/22 01:26:30;;;;;;;14.45;7.28;;;;;;;9.56;100.00;100683.53;5101110;28;20055;-72
2023/03/22 01:28:55;;;;;;;13.32;7.10;;;;;;;9.58;100.00;100673.31;5104407;28;20043;-72
2023/03/22 01:31:20;;;;;;;16.02;7.55;;;;;;;9.60;100.00;100656.88;5112585;28;20024;-74
2023/03/22 01:33:46;;;;;;;11.85;7.18;;;;;;;9.62;100.00;100661.03;5111526;28;20020;-73
2023/03/22 01:36:11;;;;;;;12.98;7.50;;;;;;;9.61;100.00;100655.84;5112281;28;20120;-72
2023/03/22 01:38:36;;;;;;;14.18;7.30;;;;;;;9.64;100.00;100656.22;5112781;28;20019;-74
2023/03/22 01:41:02;;;;;;;12.50;7.40;;;;;;;9.66;100.00;100645.19;5110766;28;20039;-72
2023/03/22 01:43:27;;;;;;;12.15;7.05;;;;;;;9.64;100.00;100642.72;5112539;28;20035;-72
2023/03/22 01:45:53;;;;;;;12.90;7.22;;;;;;;9.64;100.00;100637.31;5111356;28;20028;-73
2023/03/22 01:48:24;;;;;;;13.45;8.00;;;;;;;9.71;100.00;100635.38;5112531;28;20039;-73
2023/03/22 01:51:01;;;;;;;13.68;7.78;;;;;;;9.72;100.00;100628.94;5112735;28;20030;-72
2023/03/22 01:53:29;;;;;;;12.48;8.30;;;;;;;9.75;100.00;100624.91;5112319;28;20027;-73
2023/03/22 01:55:56;;;;;;;11.88;8.23;;;;;;;9.74;100.00;100624.09;5110531;28;20048;-72
2023/03/22 01:58:22;;;;;;;13.20;8.32;;;;;;;9.79;100.00;100622.63;5111620;28;20024;-72
2023/03/22 02:00:49;;;;;;;14.65;8.70;;;;;;;9.79;100.00;100619.91;5109036;28;20691;-72
2023/03/22 02:03:21;;;;;;;13.77;8.07;;;;;;;9.76;100.00;100613.06;5115396;28;20543;-73
2023/03/22 02:05:47;;;;;;;12.50;8.32;;;;;;;9.74;100.00;100604.38;5115237;28;20023;-71
2023/03/22 02:08:13;;;;;;;14.30;8.75;;;;;;;9.76;100.00;100607.66;5115893;28;20451;-74
2023/03/22 02:10:39;;;;;;;13.50;9.57;;;;;;;9.76;100.00;100604.97;5115696;28;20436;-73
2023/03/22 02:13:12;;;;;;;11.43;9.13;;;;;;;9.77;100.00;100606.63;5114981;28;20019;-73
2023/03/22 02:15:46;;;;;;;14.70;9.27;;;;;;;9.76;100.00;100594.16;5116287;28;20023;-73
2023/03/22 02:18:18;;;;;;;12.98;8.57;;;;;;;9.78;100.00;100602.03;5115747;28;20019;-73
2023/03/22 02:21:02;;;;;;;13.13;8.95;;;;;;;9.80;100.00;100599.94;5114887;28;20035;-73
2023/03/22 02:24:15;;;;;;;14.32;9.13;;;;;;;9.83;100.00;100594.91;5115950;28;20030;-73
2023/03/22 02:27:05;;;;;;;13.82;9.43;;;;;;;9.84;100.00;100593.03;5114994;28;20102;-73
2023/03/22 02:30:11;;;;;;;14.10;9.18;;;;;;;9.84;100.00;100588.44;5110548;28;20088;-72
2023/03/22 02:33:04;;;;;;;13.95;9.00;;;;;;;9.85;100.00;100584.69;5095743;28;20032;-73
2023/03/22 02:35:51;;;;;;;15.50;9.15;;;;;;;9.85;100.00;100575.75;5095077;28;20024;-72
2023/03/22 02:39:03;;;;;;;12.55;9.05;;;;;;;9.87;100.00;100581.75;5095264;28;20028;-72
2023/03/22 02:41:40;;;;;;;11.88;8.60;;;;;;;9.86;100.00;100580.13;5071178;28;20036;-73
2023/03/22 02:44:15;;;;;;;13.95;8.57;;;;;;;9.85;100.00;100579.28;5083356;28;20481;-73
2023/03/22 02:46:45;;;;;;;13.60;8.35;;;;;;;9.84;100.00;100576.81;5097400;28;20028;-74
2023/03/22 02:49:18;;;;;;;13.65;8.18;;;;;;;9.86;100.00;100580.13;5115564;28;20023;-72
2023/03/22 02:51:57;;;;;;;11.85;8.00;;;;;;;9.84;100.00;100577.63;5115548;28;20031;-74
2023/03/22 02:54:51;;;;;;;13.18;8.25;;;;;;;9.91;100.00;100578.38;5112692;28;20093;-72
2023/03/22 02:58:01;;;;;;;11.75;7.43;;;;;;;9.91;100.00;100564.03;5104895;28;20553;-73
2023/03/22 03:00:29;;;;;;;8.88;7.78;;;;;;;9.88;100.00;100553.69;5095681;28;20063;-72
2023/03/22 03:03:01;;;;;;;11.52;7.45;;;;;;;9.90;100.00;100570.50;5113815;28;20027;-72
2023/03/22 03:05:31;;;;;;;11.82;7.50;;;;;;;9.88;100.00;100561.81;5115078;28;20035;-71
2023/03/22 03:08:01;;;;;;;11.73;7.38;;;;;;;9.87;100.00;100557.44;5115493;28;20046;-74
2023/03/22 03:10:27;;;;;;;11.88;7.10;;;;;;;9.89;100.00;100553.47;5114991;28;20016;-73
2023/03/22 03:12:52;;;;;;;11.57;6.38;;;;;;;9.86;100.00;100553.09;5113857;28;20034;-74
2023/03/22 03:15:19;;;;;;;9.38;6.35;;;;;;;9.89;100.00;100548.06;5095795;28;20057;-72
2023/03/22 03:17:57;;;;;;;10.43;6.47;;;;;;;9.86;100.00;100536.88;5113762;28;20028;-72
2023/03/22 03:20:51;;;;;;;9.52;6.65;;;;;;;9.91;100.00;100545.94;5114871;28;20047;-74
2023/03/22 03:23:48;;;;;;;12.57;6.45;;;;;;;9.91;100.00;100548.63;5114584;28;20020;-74
2023/03/22 03:26:26;;;;;;;10.80;6.60;;;;;;;9.87;100.00;100549.31;5096456;28;20051;-73
2023/03/22 03:29:00;;;;;;;10.07;5.80;;;;;;;9.86;100.00;100536.88;5113651;28;20026;-73
2023/03/22 03:31:44;;;;;;;12.15;5.60;;;;;;;9.88;100.00;100540.19;5079727;28;20024;-73
2023/03/22 03:34:44;;;;;;;9.60;5.63;;;;;;;9.91;100.00;100543.22;5114434;28;20107;-74
2023/03/22 03:37:18;;;;;;;10.00;5.43;;;;;;;9.86;100.00;100543.09;5096295;28;20096;-73
2023/03/22 03:39:51;;;;;;;8.00;5.53;;;;;;;9.87;100.00;100538.50;5114602;28;20020;-72
2023/03/22 03:42:18;;;;;;;12.27;5.63;;;;;;;9.85;100.00;100541.44;5095916;28;20023;-74
2023/03/22 03:44:44;;;;;;;10.45;5.05;;;;;;;9.83;100.00;100535.47;5113628;28;20063;-73
2023/03/22 03:47:10;;;;;;;8.23;5.03;;;;;;;9.83;100.00;100538.16;5112757;28;20031;-73
2023/03/22 03:49:36;;;;;;;10.48;5.55;;;;;;;9.83;100.00;100540.84;5095925;28;20141;-73
2023/03/22 03:52:03;;;;;;;9.13;5.00;;;;;;;9.83;100.00;100548.97;5114337;28;20402;-74
2023/03/22 03:54:29;;;;;;;9.52;5.38;;;;;;;9.78;100.00;100542.59;5113479;28;20047;-74
2023/03/22 03:56:54;;;;;;;8.48;4.65;;;;;;;9.80;100.00;100548.56;5114080;28;20169;-74
2023/03/22 03:59:19;;;;;;;9.07;4.50;;;;;;;9.78;100.00;100548.00;5113702;28;20028;-73
2023/03/22 04:01:49;;;;;;;10.65;4.47;;;;;;;9.77;100.00;100541.78;5110360;28;20023;-72
2023/03/22 04:04:25;;;;;;;10.85;4.57;;;;;;;9.74;100.00;100550.34;5114117;28;20073;-72
2023/03/22 04:06:52;;;;;;;9.13;4.70;;;;;;;9.72;100.00;100549.72;5113802;28;20526;-72
2023/03/22 04:09:18;;;;;;;9.80;5.28;;;;;;;9.71;100.00;100546.19;5113798;28;20466;-72
2023/03/22 04:11:43;;;;;;;9.63;4.40;;;;;;;9.67;100.00;100544.19;5113946;28;20027;-74
2023/03/22 04:14:09;;;;;;;9.27;4.63;;;;;;;9.67;100.00;100539.59;5113819;28;20111;-73
2023/03/22 04:16:34;;;;;;;8.13;4.10;;;;;;;9.67;100.00;100544.19;5112720;28;20027;-74
2023/03/22 04:18:59;;;;;;;7.65;4.22;;;;;;;9.67;100.00;100544.19;5104331;28;20032;-72
2023/03/22 04:21:25;;;;;;;9.20;4.25;;;;;;;9.63;100.00;100542.97;5093171;28;20027;-73
2023/03/22 04:23:50;;;;;;;9.07;4.00;;;;;;;9.66;100.00;100537.13;5093424;28;20103;-73
2023/03/22 04:26:15;;;;;;;9.38;4.45;;;;;;;9.61;100.00;100537.78;5093356;28;20154;-73
2023/03/22 04:28:41;;;;;;;8.25;3.92;;;;;;;9.62;100.00;100530.50;5093383;28;20462;-72
2023/03/22 04:31:07;;;;;;;8.48;4.30;;;;;;;9.62;100.00;100528.66;5097269;28;20030;-73
2023/03/22 04:33:38;;;;;;;8.88;4.10;;;;;;;9.61;100.00;100528.88;5105127;28;20422;-74
2023/03/22 04:36:05;;;;;;;7.60;3.78;;;;;;;9.56;100.00;100529.56;5113633;28;20027;-74
2023/03/22 04:38:31;;;;;;;9.65;3.90;;;;;;;9.54;100.00;100521.69;5113318;28;20047;-74
2023/03/22 04:40:57;;;;;;;9.15;4.07;;;;;;;9.53;100.00;100513.81;5113440;28;20058;-74
2023/03/22 04:43:22;;;;;;;11.77;4.05;;;;;;;9.54;100.00;100518.97;5094969;28;20024;-73
2023/03/22 04:45:48;;;;;;;8.85;4.35;;;;;;;9.54;100.00;100524.38;5112602;28;20354;-73
2023/03/22 04:48:13;;;;;;;9.43;4.13;;;;;;;9.53;100.00;100521.91;5111524;28;20042;-73
2023/03/22 04:50:39;;;;;;;7.85;4.07;;;;;;;9.53;100.00;100528.13;5093998;28;20497;-73
2023/03/22 04:53:06;;;;;;;8.15;3.90;;;;;;;9.52;100.00;100523.75;5113121;28;20067;-74
2023/03/22 04:55:33;;;;;;;9.02;3.90;;;;;;;9.54;100.00;100521.69;5112807;28;20059;-74
2023/03/22 04:57:58;;;;;;;10.85;4.18;;;;;;;9.55;100.00;100525.19;5113086;28;20500;-74
2023/03/22 05:00:23;;;;;;;10.65;3.75;;;;;;;9.53;100.00;100528.13;5112375;28;20024;-74
2023/03/22 05:02:49;;;;;;;12.75;4.30;;;;;;;9.52;100.00;100517.56;5092552;28;20450;-73
2023/03/22 05:05:14;;;;;;;10.52;4.50;;;;;;;9.51;100.00;100518.59;5110026;28;20023;-74
2023/03/22 05:07:40;;;;;;;7.93;3.83;;;;;;;9.50;100.00;100516.97;5109705;28;20023;-72
2023/03/22 05:10:06;;;;;;;9.77;3.90;;;;;;;9.49;100.00;100518.00;5113022;28;20485;-74
2023/03/22 05:12:32;;;;;;;10.80;4.05;;;;;;;9.50;100.00;100514.25;5077269;28;20038;-74
2023/03/22 05:14:57;;;;;;;12.07;4.15;;;;;;;9.51;100.00;100514.03;5092578;28;20016;-72
2023/03/22 05:17:23;;;;;;;12.38;3.88;;;;;;;9.48;100.00;100508.25;5074265;28;20514;-74
2023/03/22 05:19:48;;;;;;;13.25;4.00;;;;;;;9.50;100.00;100506.16;5074125;28;20035;-73
2023/03/22 05:22:13;;;;;;;12.95;4.50;;;;;;;9.47;100.00;100502.03;5091034;28;20034;-74
2023/03/22 05:24:39;;;;;;;9.70;3.95;;;;;;;9.45;100.00;100506.84;5112633;28;20023;-73
2023/03/22 05:27:04;;;;;;;8.02;3.80;;;;;;;9.45;100.00;100503.28;5111760;28;20027;-73
2023/03/22 05:29:35;;;;;;;10.70;4.05;;;;;;;9.47;100.00;100506.59;5111886;28;20039;-72
2023/03/22 05:32:03;;;;;;;7.68;3.63;;;;;;;9.42;100.00;100499.19;5112927;28;20104;-72
2023/03/22 05:34:34;;;;;;;10.25;3.50;;;;;;;9.42;100.00;100509.16;5077670;28;20035;-72
2023/03/22 05:37:00;;;;;;;12.23;3.88;;;;;;;9.43;100.00;100506.22;5113101;28;20047;-74
2023/03/22 05:39:26;;;;;;;8.50;3.42;;;;;;;9.43;100.00;100510.81;5116808;28;20024;-72
2023/03/22 05:41:51;;;;;;;9.95;3.55;;;;;;;9.42;100.00;100501.03;5116880;28;20027;-73
2023/03/22 05:44:16;;;;;;;9.20;3.45;;;;;;;9.42;100.00;100501.03;5115637;28;20034;-73
2023/03/22 05:46:41;;;;;;;11.38;3.70;;;;;;;9.44;100.00;100507.06;5115565;27;20026;-73
2023/03/22 05:49:07;;;;;;;10.55;3.40;;;;;;;9.45;100.00;100497.88;5098555;28;20407;-72
2023/03/22 05:51:32;;;;;;;8.63;3.30;;;;;;;9.44;100.00;100509.75;5082464;28;20110;-72
2023/03/22 05:53:58;;;;;;;10.07;3.40;;;;;;;9.43;100.00;100510.81;5116239;28;20385;-73
2023/03/22 05:56:23;;;;;;;10.80;3.15;;;;;;;9.45;100.00;100500.59;5116444;28;20081;-73
2023/03/22 05:58:49;;;;;;;13.77;3.58;;;;;;;9.44;100.00;100507.88;5116141;28;20027;-74
2023/03/22 06:01:15;;;;;;;7.45;3.00;;;;;;;9.45;100.00;100514.94;5094769;28;20123;-72
2023/03/22 06:03:40;;;;;;;10.90;3.15;;;;;;;9.44;100.00;100507.06;5098002;28;20166;-72
2023/03/22 06:06:09;;;;;;;7.93;3.08;;;;;;;9.44;100.00;100507.88;5115135;28;20016;-73
2023/03/22 06:08:35;;;;;;;10.38;3.45;;;;;;;9.42;100.00;100504.59;5096897;28;20059;-72
2023/03/22 06:11:01;;;;;;;10.80;3.20;;;;;;;9.43;100.00;100495.41;5116462;28;20024;-74
2023/03/22 06:13:26;;;;;;;10.25;3.10;;;;;;;9.44;100.00;100507.06;5097736;28;20354;-72
2023/03/22 06:15:52;;;;;;;10.02;3.67;;;;;;;9.45;100.00;100503.28;5097916;28;20069;-72
2023/03/22 06:18:18;;;;;;;12.65;4.13;;;;;;;9.45;100.00;100498.72;5115182;28;20286;-73
2023/03/22 06:20:43;;;;;;;9.68;4.85;;;;;;;9.45;100.00;100498.72;5115048;28;20092;-73
2023/03/22 06:23:08;;;;;;;11.43;5.13;;;;;;;9.48;100.00;100502.84;5114142;28;20019;-73
2023/03/22 06:25:34;;;;;;;10.55;4.35;;;;;;;9.49;100.00;100501.78;5114992;28;20024;-72
2023/03/22 06:27:59;;;;;;;8.88;3.75;;;;;;;9.53;100.00;100511.09;5115966;28;20015;-72
2023/03/22 06:30:25;;;;;;;13.30;4.20;;;;;;;9.53;100.00;100506.50;5097774;28;20031;-72
2023/03/22 06:32:51;;;;;;;7.40;3.78;;;;;;;9.56;100.00;100507.94;5115494;28;20509;-73
2023/03/22 06:35:17;;;;;;;12.75;3.42;;;;;;;9.60;100.00;100513.72;5115164;28;20032;-72
2023/03/22 06:37:42;;;;;;;12.60;3.80;;;;;;;9.59;100.00;100507.50;5097454;28;20477;-72
2023/03/22 06:40:08;;;;;;;11.38;3.80;;;;;;;9.61;100.00;100502.69;5080972;28;20028;-74
2023/03/22 06:42:34;;;;;;;13.05;4.45;;;;;;;9.66;100.00;100515.50;5095351;28;20036;-72
2023/03/22 06:44:59;;;;;;;12.75;4.05;;;;;;;9.65;100.00;100519.28;5077161;28;20024;-73
2023/03/22 06:47:25;;;;;;;12.18;3.88;;;;;;;9.67;100.00;100515.28;5095127;28;20019;-73
2023/03/22 06:49:51;;;;;;;9.82;3.75;;;;;;;9.68;100.00;100510.72;5094174;28;20028;-73
2023/03/22 06:52:17;;;;;;;11.35;3.63;;;;;;;9.72;100.00;100514.59;5088109;28;20058;-72
2023/03/22 06:54:42;;;;;;;9.27;3.67;;;;;;;9.75;100.00;100514.97;5094603;28;20096;-74
2023/03/22 06:57:07;;;;;;;11.95;4.10;;;;;;;9.79;100.00;100504.53;5096784;28;20532;-73
2023/03/22 06:59:33;;;;;;;13.23;4.47;;;;;;;9.86;100.00;100509.84;5115234;28;20023;-72
2023/03/22 07:01:59;;;;;;;10.23;4.05;;;;;;;9.88;100.00;100513.16;5112826;28;20031;-74
2023/03/22 07:04:24;;;;;;;12.45;4.47;;;;;;;9.91;100.00;100507.28;5115345;28;20027;-73
2023/03/22 07:06:50;;;;;;;10.82;3.78;;;;;;;9.91;100.00;100501.88;5114112;28;20039;-72
2023/03/22 07:09:15;;;;;;;10.57;3.83;;;;;;;9.94;100.00;100506.81;5113747;28;20038;-73
2023/03/22 07:11:41;;;;;;;13.32;3.90;;;;;;;9.93;100.00;100503.31;5096632;28;20114;-72
2023/03/22 07:14:06;;;;;;;8.73;3.60;;;;;;;9.95;100.00;100503.06;5114281;28;20034;-72
2023/03/22 07:16:31;;;;;;;13.23;4.03;;;;;;;9.97;100.00;100506.38;5096614;28;20354;-73
2023/03/22 07:18:57;;;;;;;10.38;3.72;;;;;;;9.95;100.00;100505.78;5115096;28;20031;-73
2023/03/22 07:21:22;;;;;;;15.75;4.57;;;;;;;9.96;100.00;100504.72;5095595;28;20126;-73
2023/03/22 07:23:47;;;;;;;13.48;3.97;;;;;;;9.98;100.00;100508.03;5083377;28;20024;-74
2023/03/22 07:26:13;;;;;;;10.95;4.13;;;;;;;10.01;100.00;100512.13;5100929;28;20020;-73
2023/03/22 07:28:40;;;;;;;13.88;4.63;;;;;;;10.05;100.00;100507.91;5093048;28;20036;-72
2023/03/22 07:31:10;;;;;;;9.45;4.18;;;;;;;10.07;100.00;100522.03;5114736;28;20477;-73
2023/03/22 07:33:39;;;;;;;12.55;4.72;;;;;;;10.10;100.00;100522.41;5114150;28;20461;-72
2023/03/22 07:36:07;;;;;;;9.88;4.50;;;;;;;10.11;100.00;100518.66;5114010;28;20031;-73
2023/03/22 07:38:33;;;;;;;14.43;5.00;;;;;;;10.15;100.00;100520.91;5114359;28;20019;-72
2023/03/22 07:40:58;;;;;;;13.90;4.95;;;;;;;10.19;100.00;100519.34;5095098;28;20039;-72
2023/03/22 07:43:24;;;;;;;9.95;4.20;;;;;;;10.21;100.00;100517.25;5112141;28;20024;-73
2023/03/22 07:45:50;;;;;;;13.43;5.22;;;;;;;10.24;100.00;100519.50;5114339;28;20028;-74
2023/03/22 07:48:16;;;;;;;13.43;4.05;;;;;;;10.31;100.00;100522.09;5114862;28;20465;-74
2023/03/22 07:50:42;;;;;;;12.48;4.50;;;;;;;10.35;100.00;100523.31;5095963;28;20026;-74
2023/03/22 07:53:08;;;;;;;12.23;4.50;;;;;;;10.36;100.00;100517.69;5114251;28;20032;-74
2023/03/22 07:55:34;;;;;;;11.15;3.85;;;;;;;10.37;100.00;100511.22;5097678;28;20044;-73
2023/03/22 07:58:00;;;;;;;10.27;3.83;;;;;;;10.38;100.00;100514.75;5089991;28;20019;-73
2023/03/22 08:00:25;;;;;;;11.95;3.47;;;;;;;10.42;100.00;100514.06;5100661;28;20462;-75
2023/03/22 08:02:51;;;;;;;10.45;3.60;;;;;;;10.42;100.00;100514.06;5112012;28;20081;-72
2023/03/22 08:05:16;;;;;;;11.18;3.22;;;;;;;10.43;100.00;100520.28;5114296;28;20055;-73
2023/03/22 08:07:42;;;;;;;12.60;3.58;;;;;;;10.44;100.00;100530.03;5114009;28;20026;-72
2023/03/22 08:10:08;;;;;;;12.10;3.13;;;;;;;10.44;100.00;100530.03;5094738;28;20231;-73
2023/03/22 08:12:33;;;;;;;12.02;3.08;;;;;;;10.46;100.00;100520.66;5113711;28;20080;-74
2023/03/22 08:15:01;;;;;;;10.13;3.10;;;;;;;10.51;100.00;100519.09;5114037;28;20031;-73
2023/03/22 08:17:28;;;;;;;9.77;2.83;;;;;;;10.55;100.00;100514.88;5112359;28;20035;-72
2023/03/22 08:19:54;;;;;;;9.80;3.20;;;;;;;10.57;100.00;100520.91;5112057;28;20077;-73
2023/03/22 08:22:23;;;;;;;9.57;2.85;;;;;;;10.60;100.00;100518.56;5112424;28;20351;-72
2023/03/22 08:24:49;;;;;;;10.25;2.90;;;;;;;10.67;100.00;100526.53;5095247;28;20062;-73
2023/03/22 08:27:15;;;;;;;10.30;3.38;;;;;;;10.72;100.00;100523.97;5078927;28;20471;-73
2023/03/22 08:29:43;;;;;;;11.35;2.80;;;;;;;10.79;100.00;100530.13;5093104;28;20031;-74
2023/03/22 08:32:19;;;;;;;9.48;3.03;;;;;;;10.81;100.00;100527.16;5075092;28;20031;-74
2023/03/22 08:34:56;;;;;;;13.10;2.92;;;;;;;10.84;100.00;100515.88;5074253;28;20016;-72
2023/03/22 08:37:34;;;;;;;9.25;2.85;;;;;;;10.88;100.00;100511.63;5092988;28;20374;-73
2023/03/22 08:40:11;;;;;;;12.60;3.35;;;;;;;10.89;100.00;100507.84;5093946;28;20027;-73
2023/03/22 08:42:52;;;;;;;12.52;3.00;;;;;;;10.91;100.00;100503.03;5094431;28;20466;-74
2023/03/22 08:45:20;;;;;;;8.40;2.85;;;;;;;11.00;100.00;100503.50;5094608;28;20072;-74
2023/03/22 08:47:46;;;;;;;10.18;3.10;;;;;;;11.05;100.00;100498.22;5094615;28;20027;-74
2023/03/22 08:50:12;;;;;;;14.05;3.28;;;;;;;11.06;100.00;100513.38;5093278;28;20107;-74
2023/03/22 08:52:38;;;;;;;11.38;3.03;;;;;;;11.09;100.00;100498.56;5112707;28;20099;-73
2023/03/22 08:55:05;;;;;;;9.90;2.88;;;;;;;11.12;100.00;100512.44;5093655;28;20482;-74
2023/03/22 08:57:31;;;;;;;10.93;2.60;;;;;;;11.14;100.00;100496.78;5094252;28;20370;-73
2023/03/22 08:59:57;;;;;;;15.10;2.97;;;;;;;11.19;100.00;100506.91;5113081;28;20073;-73
2023/03/22 09:02:23;;;;;;;11.85;2.60;;;;;;;11.18;100.00;100506.06;5110648;28;20053;-72
2023/03/22 09:04:49;;;;;;;10.10;2.83;;;;;;;11.22;100.00;100509.13;5091288;28;20026;-74
2023/03/22 09:07:16;;;;;;;10.35;2.88;;;;;;;11.22;100.00;100498.31;5092518;28;20024;-73
2023/03/22 09:09:41;;;;;;;11.98;3.03;;;;;;;11.25;100.00;100505.94;5100625;28;20111;-74
2023/03/22 09:12:07;;;;;;;13.43;3.05;;;;;;;11.25;100.00;100505.13;5106393;28;20354;-74
2023/03/22 09:14:33;;;;;;;9.43;2.70;;;;;;;11.28;100.00;100496.53;5099279;28;20036;-72
2023/03/22 09:16:58;;;;;;;10.27;2.50;;;;;;;11.32;99.60;100505.81;5087719;28;20118;-75
2023/03/22 09:19:23;;;;;;;9.75;2.80;;;;;;;11.35;100.00;100495.34;5073489;28;20024;-73
2023/03/22 09:21:49;;;;;;;9.73;2.53;;;;;;;11.42;100.00;100500.63;5092056;28;20016;-74
2023/03/22 09:24:14;;;;;;;9.65;2.60;;;;;;;11.48;98.16;100491.53;5074492;28;20028;-72
2023/03/22 09:26:40;;;;;;;13.63;2.67;;;;;;;11.50;98.61;100489.41;5091985;28;20364;-73
2023/03/22 09:29:06;;;;;;;14.93;2.95;;;;;;;11.55;100.00;100487.84;5098893;28;20371;-72
2023/03/22 09:31:31;;;;;;;16.67;3.35;;;;;;;11.53;97.67;100486.22;5109916;28;20040;-72
2023/03/22 09:33:57;;;;;;;11.05;2.83;;;;;;;11.56;98.52;100490.31;5094227;28;20026;-70
2023/03/22 09:36:22;;;;;;;11.10;2.60;;;;;;;11.59;97.14;100483.59;5112562;28;20069;-74
2023/03/22 09:38:48;;;;;;;10.80;2.60;;;;;;;11.59;95.50;100491.75;5112951;28;20019;-73
2023/03/22 09:41:34;;;;;;;11.40;2.78;;;;;;;11.57;95.62;100486.56;5112844;28;20028;-76
2023/03/22 09:44:04;;;;;;;10.27;2.58;;;;;;;11.54;92.86;100489.75;5108422;28;20043;-75
2023/03/22 09:46:35;;;;;;;11.75;2.35;;;;;;;11.51;94.41;100488.34;5074199;28;20028;-76
2023/03/22 09:49:09;;;;;;;11.95;2.20;;;;;;;11.53;95.35;100488.09;5091820;28;20097;-78
2023/03/22 09:51:41;;;;;;;12.98;2.60;;;;;;;11.51;92.68;100488.34;5066362;28;20472;-73
2023/03/22 09:54:20;;;;;;;9.25;2.22;;;;;;;11.49;99.58;100476.91;5060395;28;20020;-74
2023/03/22 09:56:54;;;;;;;11.65;2.70;;;;;;;11.51;97.97;100485.63;5075768;28;20121;-73
2023/03/22 09:59:43;;;;;;;12.65;2.58;;;;;;;11.52;100.00;100487.28;5077790;28;20412;-74
2023/03/22 10:02:36;;;;;;;10.38;2.80;;;;;;;11.50;100.00;100489.41;5084179;28;20395;-73
2023/03/22 10:05:24;;;;;;;9.15;2.45;;;;;;;11.48;100.00;100483.41;5087621;28;20028;-73
2023/03/22 10:08:14;;;;;;;14.63;2.95;;;;;;;11.50;100.00;100481.28;5081952;28;20032;-71
2023/03/22 10:10:41;;;;;;;9.10;2.30;;;;;;;11.51;97.71;100474.78;5089398;28;20028;-71
2023/03/22 10:13:25;;;;;;;9.77;2.40;;;;;;;11.51;100.00;100485.63;5092105;28;20032;-73
2023/03/22 10:15:54;;;;;;;8.25;2.38;;;;;;;11.48;100.00;100486.09;5064050;28;20394;-75
2023/03/22 10:18:40;;;;;;;11.35;2.83;;;;;;;11.53;100.00;100480.81;5082002;28;20028;-72
2023/03/22 10:21:11;;;;;;;13.10;2.83;;;;;;;11.46;100.00;100485.53;5069614;28;20043;-75
2023/03/22 10:23:49;;;;;;;11.02;2.50;;;;;;;11.43;100.00;100482.47;5076109;28;20376;-74
2023/03/22 10:26:29;;;;;;;11.93;3.40;;;;;;;11.30;100.00;100502.53;5076170;28;20086;-73
2023/03/22 10:29:00;;;;;;;9.75;3.05;;;;;;;11.14;100.00;100496.78;5095448;28;20024;-73
2023/03/22 10:31:26;;;;;;;9.93;2.80;;;;;;;11.08;100.00;100505.03;5095592;28;20469;-76
2023/03/22 10:34:00;;;;;;;10.45;2.80;;;;;;;10.95;100.00;100506.91;5093771;28;20019;-75
2023/03/22 10:36:33;;;;;;;9.85;2.97;;;;;;;10.89;100.00;100507.84;5073643;28;20050;-75
2023/03/22 10:39:28;;;;;;;9.25;2.33;;;;;;;10.88;100.00;100506.19;5074922;28;20090;-76
2023/03/22 10:41:56;;;;;;;9.57;2.85;;;;;;;10.82;100.00;100512.56;5057066;28;20475;-72
2023/03/22 10:44:24;;;;;;;13.20;3.05;;;;;;;10.76;100.00;100503.50;5075119;28;20031;-75
2023/03/22 10:46:50;;;;;;;11.90;2.85;;;;;;;10.76;100.00;100503.50;5075190;28;20467;-75
2023/03/22 10:49:31;;;;;;;8.02;2.60;;;;;;;10.72;100.00;100499.63;5076339;28;20028;-74
2023/03/22 10:52:02;;;;;;;8.60;2.80;;;;;;;10.68;100.00;100495.72;5095205;28;20028;-72
2023/03/22 10:54:28;;;;;;;13.83;3.10;;;;;;;10.71;100.00;100497.97;5093447;28;20048;-75
2023/03/22 10:56:53;;;;;;;9.75;2.80;;;;;;;10.66;100.00;100499.72;5076925;28;20470;-74
2023/03/22 10:59:42;;;;;;;8.38;2.50;;;;;;;10.70;100.00;100498.19;5068785;28;20020;-74
2023/03/22 11:02:20;;;;;;;15.63;2.92;;;;;;;10.55;100.00;100494.09;5092580;28;20020;-74
2023/03/22 11:04:51;;;;;;;11.07;3.42;;;;;;;10.52;100.00;100499.13;5083732;28;20024;-73
2023/03/22 11:07:46;;;;;;;12.43;3.10;;;;;;;10.56;100.00;100503.03;5089458;28;20024;-74
2023/03/22 11:10:20;;;;;;;13.30;3.30;;;;;;;10.51;100.00;100505.59;5080957;28;20098;-74
2023/03/22 11:12:51;;;;;;;10.52;2.92;;;;;;;10.53;100.00;100500.78;5076443;28;20024;-73
2023/03/22 11:15:26;;;;;;;11.15;3.30;;;;;;;10.53;100.00;100501.59;5094326;28;20024;-73
2023/03/22 11:17:57;;;;;;;10.10;2.72;;;;;;;10.59;100.00;100497.13;5075035;28;20020;-74
2023/03/22 11:20:23;;;;;;;10.77;3.13;;;;;;;10.56;100.00;100493.00;5073336;28;20016;-76
2023/03/22 11:22:49;;;;;;;12.07;3.03;;;;;;;10.61;100.00;100484.19;5076050;28;20028;-77
2023/03/22 11:25:34;;;;;;;12.63;3.63;;;;;;;10.67;100.00;100479.72;5094369;28;20072;-74
2023/03/22 11:28:08;;;;;;;8.75;2.75;;;;;;;10.70;100.00;100488.19;5089752;28;20024;-75